createdAt,value
2019-04-10T00:00:35.043Z,5.15
2019-04-10T00:03:04.207Z,5.95
2019-04-10T00:05:32.641Z,5.22
2019-04-10T00:08:01.842Z,4.80
2019-04-10T00:10:30.559Z,5.22
2019-04-10T00:12:59.077Z,4.25
2019-04-10T00:15:28.380Z,5.65
2019-04-10T00:17:57.769Z,4.67
2019-04-10T00:20:26.719Z,4.22
2019-04-10T00:22:55.367Z,4.40
2019-04-10T00:25:24.444Z,4.50
2019-04-10T00:27:52.919Z,5.65
2019-04-10T00:30:21.432Z,4.12
2019-04-10T00:32:49.901Z,4.80
2019-04-10T00:35:19.275Z,5.65
2019-04-10T00:37:47.812Z,4.37
2019-04-10T00:40:17.213Z,4.37
2019-04-10T00:42:45.730Z,4.95
2019-04-10T00:45:15.238Z,5.65
2019-04-10T00:47:44.015Z,5.00
2019-04-10T00:50:12.641Z,4.62
2019-04-10T00:52:41.140Z,4.03
2019-04-10T00:55:09.910Z,7.15
2019-04-10T00:57:39.331Z,6.22
2019-04-10T01:00:08.555Z,6.87
2019-04-10T01:02:37.002Z,5.95
2019-04-10T01:05:06.894Z,4.75
2019-04-10T01:07:39.776Z,5.30
2019-04-10T01:10:08.164Z,5.33
2019-04-10T01:12:36.890Z,5.22
2019-04-10T01:15:06.740Z,6.50
2019-04-10T01:17:35.153Z,6.17
2019-04-10T01:20:05.155Z,5.33
2019-04-10T01:22:33.716Z,7.03
2019-04-10T01:25:03.666Z,6.28
2019-04-10T01:27:32.122Z,8.15
2019-04-10T01:30:00.539Z,4.03
2019-04-10T01:32:29.952Z,5.08
2019-04-10T01:34:58.878Z,6.78
2019-04-10T01:37:27.476Z,4.78
2019-04-10T01:39:56.888Z,7.53
2019-04-10T01:42:25.439Z,5.25
2019-04-10T01:44:53.863Z,5.65
2019-04-10T01:47:23.363Z,5.05
2019-04-10T01:49:51.912Z,5.33
2019-04-10T01:52:20.632Z,6.05
2019-04-10T01:54:49.271Z,3.98
2019-04-10T01:57:36.659Z,5.58
2019-04-10T02:00:13.285Z,6.33
2019-04-10T02:05:33.587Z,5.62
2019-04-10T02:08:08.616Z,3.72
2019-04-10T02:10:32.170Z,4.67
2019-04-10T02:13:01.180Z,6.70
2019-04-10T02:15:30.131Z,6.17
2019-04-10T02:17:59.129Z,5.25
2019-04-10T02:20:27.621Z,5.28
2019-04-10T02:23:03.785Z,5.03
2019-04-10T02:25:32.708Z,4.47
2019-04-10T02:28:01.194Z,4.65
2019-04-10T02:30:30.287Z,4.53
2019-04-10T02:32:59.800Z,6.58
2019-04-10T02:35:29.725Z,4.00
2019-04-10T02:38:05.890Z,6.15
2019-04-10T02:40:28.921Z,6.72
2019-04-10T02:42:58.875Z,5.55
2019-04-10T02:45:27.725Z,5.08
2019-04-10T02:47:56.156Z,4.65
2019-04-10T02:50:25.286Z,5.00
2019-04-10T02:52:54.996Z,5.80
2019-04-10T02:55:25.083Z,4.58
2019-04-10T02:57:54.266Z,7.28
2019-04-10T03:00:24.529Z,6.37
2019-04-10T03:02:55.015Z,5.00
2019-04-10T03:05:25.715Z,5.53
2019-04-10T03:07:53.948Z,6.45
2019-04-10T03:10:31.428Z,4.08
2019-04-10T03:12:52.762Z,5.03
2019-04-10T03:15:23.110Z,5.03
2019-04-10T03:17:52.441Z,4.95
2019-04-10T03:20:21.058Z,5.83
2019-04-10T03:22:49.517Z,6.42
2019-04-10T03:25:19.139Z,10.15
2019-04-10T03:27:47.897Z,6.10
2019-04-10T03:30:18.297Z,4.70
2019-04-10T03:33:08.649Z,5.58
2019-04-10T03:35:43.074Z,7.05
2019-04-10T03:38:12.002Z,6.40
2019-04-10T03:40:41.506Z,5.67
2019-04-10T03:43:10.264Z,6.97
2019-04-10T03:45:39.005Z,7.28
2019-04-10T03:48:08.454Z,5.70
2019-04-10T03:50:37.037Z,4.72
2019-04-10T03:53:05.568Z,6.22
2019-04-10T03:55:34.833Z,7.08
2019-04-10T03:58:03.330Z,8.23
2019-04-10T04:00:31.788Z,8.20
2019-04-10T04:03:00.289Z,8.20
2019-04-10T04:05:28.847Z,5.33
2019-04-10T04:07:57.375Z,7.55
2019-04-10T04:10:26.738Z,7.97
2019-04-10T04:12:55.295Z,9.25
2019-04-10T04:15:23.997Z,6.62
2019-04-10T04:17:52.692Z,9.33
2019-04-10T04:20:21.205Z,9.58
2019-04-10T04:22:49.654Z,8.73
2019-04-10T04:25:18.134Z,7.05
2019-04-10T04:27:46.589Z,5.60
2019-04-10T04:30:34.376Z,8.25
2019-04-10T04:33:02.791Z,8.68
2019-04-10T04:35:31.513Z,11.83
2019-04-10T04:38:00.426Z,10.18
2019-04-10T04:40:29.956Z,9.83
2019-04-10T04:42:58.578Z,8.38
2019-04-10T04:45:27.841Z,10.40
2019-04-10T04:47:56.322Z,11.15
2019-04-10T04:50:44.170Z,13.00
2019-04-10T04:53:12.628Z,8.28
2019-04-10T04:55:41.066Z,5.95
2019-04-10T04:58:09.745Z,8.30
2019-04-10T05:00:38.316Z,8.43
2019-04-10T05:03:07.849Z,9.43
2019-04-10T05:05:36.357Z,8.30
2019-04-10T05:08:05.904Z,10.05
2019-04-10T05:10:35.699Z,7.67
2019-04-10T05:13:13.667Z,10.58
2019-04-10T05:15:42.810Z,7.72
2019-04-10T05:18:12.422Z,13.03
2019-04-10T05:20:45.989Z,12.03
2019-04-10T05:23:11.158Z,9.35
2019-04-10T05:25:39.587Z,9.90
2019-04-10T05:28:08.029Z,9.08
2019-04-10T05:30:37.628Z,6.92
2019-04-10T05:33:06.328Z,9.90
2019-04-10T05:35:35.061Z,7.92
2019-04-10T05:38:04.529Z,8.73
2019-04-10T05:40:33.270Z,9.00
2019-04-10T05:43:02.195Z,5.92
2019-04-10T05:45:31.779Z,6.75
2019-04-10T05:48:01.178Z,7.17
2019-04-10T05:50:29.921Z,7.85
2019-04-10T05:53:18.464Z,9.05
2019-04-10T05:55:47.279Z,8.03
2019-04-10T05:58:15.830Z,6.20
2019-04-10T06:00:45.038Z,12.37
2019-04-10T06:03:14.403Z,6.90
2019-04-10T06:05:42.959Z,9.35
2019-04-10T06:08:11.917Z,8.58
2019-04-10T06:10:41.525Z,8.68
2019-04-10T06:13:10.951Z,6.87
2019-04-10T06:15:39.542Z,6.47
2019-04-10T06:18:09.064Z,11.48
2019-04-10T06:20:37.682Z,5.58
2019-04-10T06:23:07.322Z,9.38
2019-04-10T06:25:38.576Z,7.60
2019-04-10T06:28:12.906Z,7.90
2019-04-10T06:30:41.879Z,6.35
2019-04-10T06:33:11.638Z,4.80
2019-04-10T06:35:40.327Z,8.48
2019-04-10T06:38:08.766Z,7.03
2019-04-10T06:40:37.667Z,8.85
2019-04-10T06:43:06.606Z,8.18
2019-04-10T06:45:35.755Z,6.83
2019-04-10T06:48:04.408Z,5.92
2019-04-10T06:50:32.923Z,5.17
2019-04-10T06:53:01.334Z,6.35
2019-04-10T06:55:30.193Z,6.55
2019-04-10T06:57:59.342Z,8.35
2019-04-10T07:00:52.916Z,8.15
2019-04-10T07:03:18.885Z,5.22
2019-04-10T07:06:02.450Z,6.53
2019-04-10T07:08:22.199Z,8.55
2019-04-10T07:10:54.227Z,8.03
2019-04-10T07:13:17.887Z,5.37
2019-04-10T07:15:46.944Z,4.80
2019-04-10T07:18:18.497Z,4.80
2019-04-10T07:20:46.170Z,6.45
2019-04-10T07:23:23.408Z,8.15
2019-04-10T07:25:47.258Z,6.67
2019-04-10T07:28:17.293Z,8.45
2019-04-10T07:30:46.075Z,7.60
2019-04-10T07:33:16.747Z,8.08
2019-04-10T07:35:44.689Z,7.80
2019-04-10T07:38:13.949Z,5.22
2019-04-10T07:40:42.869Z,6.37
2019-04-10T07:43:11.497Z,5.28
2019-04-10T07:45:40.000Z,5.95
2019-04-10T07:48:08.690Z,6.95
2019-04-10T07:50:37.231Z,14.23
2019-04-10T07:53:06.156Z,13.20
2019-04-10T07:55:35.119Z,7.87
2019-04-10T07:58:04.773Z,6.30
2019-04-10T08:00:34.408Z,5.83
2019-04-10T08:03:04.123Z,7.78
2019-04-10T08:05:33.294Z,6.30
2019-04-10T08:08:02.933Z,4.60
2019-04-10T08:10:32.644Z,7.70
2019-04-10T08:13:02.289Z,4.58
2019-04-10T08:15:31.590Z,5.42
2019-04-10T08:18:00.434Z,5.00
2019-04-10T08:20:28.944Z,7.05
2019-04-10T08:22:57.443Z,4.60
2019-04-10T08:25:26.908Z,6.20
2019-04-10T08:27:56.399Z,5.85
2019-04-10T08:30:25.906Z,5.85
2019-04-10T08:33:00.789Z,5.85
2019-04-10T08:35:25.087Z,5.08
2019-04-10T08:37:53.857Z,6.80
2019-04-10T08:40:23.186Z,7.15
2019-04-10T08:42:51.726Z,5.40
2019-04-10T08:45:21.038Z,4.97
2019-04-10T08:47:50.705Z,6.03
2019-04-10T08:50:19.714Z,5.72
2019-04-10T08:52:48.656Z,8.18
2019-04-10T08:55:17.750Z,5.85
2019-04-10T08:57:46.369Z,5.65
2019-04-10T09:00:14.945Z,4.00
2019-04-10T09:02:44.916Z,4.80
2019-04-10T09:05:14.843Z,5.00
2019-04-10T09:07:44.267Z,5.17
2019-04-10T09:10:32.071Z,4.92
2019-04-10T09:13:00.494Z,4.72
2019-04-10T09:15:29.867Z,4.92
2019-04-10T09:17:59.715Z,5.67
2019-04-10T09:20:28.824Z,3.95
2019-04-10T09:23:17.762Z,4.80
2019-04-10T09:25:27.640Z,4.33
2019-04-10T09:27:56.092Z,3.95
2019-04-10T09:30:24.790Z,6.28
2019-04-10T09:32:53.312Z,4.30
2019-04-10T09:35:22.552Z,4.50
2019-04-10T09:37:51.030Z,3.77
2019-04-10T09:40:20.421Z,5.20
2019-04-10T09:42:50.014Z,4.22
2019-04-10T09:45:18.550Z,4.83
2019-04-10T09:47:47.966Z,4.40
2019-04-10T09:50:17.261Z,7.05
2019-04-10T09:52:46.215Z,4.70
2019-04-10T09:55:15.821Z,2.72
2019-04-10T09:57:45.251Z,4.95
2019-04-10T10:00:14.368Z,4.45
2019-04-10T10:02:42.792Z,3.98
2019-04-10T10:05:12.515Z,4.58
2019-04-10T10:07:41.113Z,3.70
2019-04-10T10:10:10.630Z,4.53
2019-04-10T10:12:39.331Z,4.97
2019-04-10T10:15:09.640Z,3.98
2019-04-10T10:17:39.074Z,3.62
2019-04-10T10:20:08.452Z,4.45
2019-04-10T10:22:37.092Z,4.75
2019-04-10T10:25:07.976Z,3.62
2019-04-10T10:27:58.484Z,3.72
2019-04-10T10:30:27.282Z,5.90
2019-04-10T10:32:55.813Z,4.45
2019-04-10T10:35:25.188Z,3.92
2019-04-10T10:37:54.720Z,4.33
2019-04-10T10:40:23.503Z,4.60
2019-04-10T10:42:52.085Z,4.92
2019-04-10T10:45:20.824Z,3.30
2019-04-10T10:47:50.536Z,4.72
2019-04-10T10:50:19.318Z,6.47
2019-04-10T10:52:48.013Z,4.55
2019-04-10T10:55:16.481Z,11.03
2019-04-10T10:57:45.003Z,3.98
2019-04-10T11:00:14.667Z,3.87
2019-04-10T11:02:43.648Z,4.92
2019-04-10T11:05:12.749Z,5.62
2019-04-10T11:07:41.287Z,4.10
2019-04-10T11:10:10.038Z,4.67
2019-04-10T11:12:38.563Z,3.60
2019-04-10T11:15:07.795Z,4.60
2019-04-10T11:17:36.514Z,4.72
2019-04-10T11:20:28.074Z,9.38
2019-04-10T11:22:57.731Z,4.70
2019-04-10T11:25:26.437Z,5.42
2019-04-10T11:27:56.319Z,4.50
2019-04-10T11:30:25.052Z,4.30
2019-04-10T11:32:54.927Z,5.25
2019-04-10T11:35:24.258Z,6.03
2019-04-10T11:37:56.204Z,6.87
2019-04-10T11:40:23.545Z,4.92
2019-04-10T11:42:54.201Z,5.55
2019-04-10T11:45:23.635Z,4.37
2019-04-10T11:47:53.169Z,3.85
2019-04-10T11:50:22.472Z,4.00
2019-04-10T11:52:54.129Z,4.58
2019-04-10T11:55:26.131Z,5.50
2019-04-10T11:57:54.593Z,3.50
2019-04-10T12:00:34.201Z,4.65
2019-04-10T12:03:02.057Z,5.90
2019-04-10T12:05:31.717Z,6.92
2019-04-10T12:08:28.057Z,8.83
2019-04-10T12:13:01.835Z,4.45
2019-04-10T12:15:30.405Z,4.10
2019-04-10T12:17:58.821Z,3.80
2019-04-10T12:20:27.280Z,4.25
2019-04-10T12:22:56.608Z,4.83
2019-04-10T12:25:25.188Z,5.30
2019-04-10T12:27:53.641Z,4.72
2019-04-10T12:30:22.239Z,6.35
2019-04-10T12:32:50.757Z,4.83
2019-04-10T12:35:19.174Z,3.92
2019-04-10T12:37:57.830Z,5.42
2019-04-10T12:40:17.917Z,3.83
2019-04-10T12:42:46.443Z,6.53
2019-04-10T12:45:15.791Z,3.55
2019-04-10T12:47:44.326Z,5.03
2019-04-10T12:50:14.049Z,5.65
2019-04-10T12:52:42.874Z,4.28
2019-04-10T12:55:12.293Z,5.20
2019-04-10T12:57:41.345Z,5.08
2019-04-10T13:00:34.011Z,3.85
2019-04-10T13:03:02.990Z,4.55
2019-04-10T13:05:31.525Z,6.10
2019-04-10T13:08:12.018Z,5.20
2019-04-10T13:10:31.566Z,3.33
2019-04-10T13:13:00.333Z,5.25
2019-04-10T13:15:29.709Z,4.47
2019-04-10T13:17:58.512Z,5.20
2019-04-10T13:20:27.045Z,7.45
2019-04-10T13:22:56.237Z,5.10
2019-04-10T13:25:24.787Z,5.47
2019-04-10T13:27:54.894Z,5.40
2019-04-10T13:30:23.653Z,3.95
2019-04-10T13:32:52.103Z,4.35
2019-04-10T13:35:20.624Z,4.10
2019-04-10T13:37:49.124Z,6.12
2019-04-10T13:40:17.622Z,5.03
2019-04-10T13:42:47.362Z,5.53
2019-04-10T13:45:17.799Z,4.83
2019-04-10T13:47:48.064Z,5.70
2019-04-10T13:50:16.878Z,5.05
2019-04-10T13:52:49.657Z,6.08
2019-04-10T13:55:17.421Z,3.40
2019-04-10T13:57:46.680Z,8.75
2019-04-10T14:00:20.120Z,4.53
2019-04-10T14:02:48.616Z,4.22
2019-04-10T14:05:17.889Z,5.10
2019-04-10T14:07:46.579Z,5.67
2019-04-10T14:10:15.668Z,4.15
2019-04-10T14:12:44.164Z,6.10
2019-04-10T14:15:12.689Z,5.92
2019-04-10T14:17:41.725Z,5.15
2019-04-10T14:20:13.152Z,4.92
2019-04-10T14:22:46.242Z,5.28
2019-04-10T14:25:16.461Z,7.05
2019-04-10T14:27:45.310Z,7.42
2019-04-10T14:30:15.441Z,4.25
2019-04-10T14:32:45.129Z,4.53
2019-04-10T14:35:14.805Z,5.55
2019-04-10T14:37:43.466Z,5.85
2019-04-10T14:40:13.635Z,7.15
2019-04-10T14:42:42.480Z,4.58
2019-04-10T14:45:11.253Z,5.28
2019-04-10T14:47:39.845Z,5.62
2019-04-10T14:50:09.428Z,5.30
2019-04-10T14:52:38.010Z,5.08
2019-04-10T14:55:06.721Z,4.60
2019-04-10T14:57:35.169Z,3.83
2019-04-10T15:00:08.544Z,6.83
2019-04-10T15:02:37.184Z,7.78
2019-04-10T15:05:08.037Z,6.40
2019-04-10T15:07:37.306Z,5.45
2019-04-10T15:10:08.121Z,5.83
2019-04-10T15:12:37.384Z,6.17
2019-04-10T15:15:06.402Z,4.60
2019-04-10T15:17:35.022Z,5.37
2019-04-10T15:20:03.576Z,3.58
2019-04-10T15:22:32.098Z,6.80
2019-04-10T15:25:01.481Z,9.43
2019-04-10T15:27:30.222Z,5.95
2019-04-10T15:29:58.885Z,5.97
2019-04-10T15:32:27.393Z,5.97
2019-04-10T15:34:55.936Z,3.40
2019-04-10T15:37:33.334Z,6.50
2019-04-10T15:40:11.449Z,6.92
2019-04-10T15:42:32.224Z,4.70
2019-04-10T15:45:00.842Z,6.17
2019-04-10T15:47:29.421Z,4.37
2019-04-10T15:49:57.868Z,8.35
2019-04-10T15:52:27.122Z,6.47
2019-04-10T15:54:55.632Z,6.92
2019-04-10T15:57:24.927Z,15.58
2019-04-10T15:59:54.591Z,7.83
2019-04-10T16:02:23.729Z,4.83
2019-04-10T16:04:53.048Z,7.97
2019-04-10T16:07:22.528Z,4.58
2019-04-10T16:09:54.601Z,4.80
2019-04-10T16:12:24.850Z,6.17
2019-04-10T16:14:53.389Z,5.55
2019-04-10T16:17:24.016Z,5.50
2019-04-10T16:20:11.331Z,4.47
2019-04-10T16:22:42.667Z,5.28
2019-04-10T16:25:13.748Z,6.58
2019-04-10T16:27:43.226Z,5.97
2019-04-10T16:30:14.432Z,5.08
2019-04-10T16:32:44.200Z,6.17
2019-04-10T16:35:13.896Z,9.35
2019-04-10T16:37:42.497Z,7.53
2019-04-10T16:40:11.804Z,5.78
2019-04-10T16:42:41.722Z,7.67
2019-04-10T16:45:13.466Z,5.67
2019-04-10T16:47:42.092Z,5.65
2019-04-10T16:50:11.242Z,7.08
2019-04-10T16:52:39.696Z,5.87
2019-04-10T16:55:08.687Z,7.25
2019-04-10T16:57:37.223Z,5.22
2019-04-10T17:00:06.928Z,5.08
2019-04-10T17:02:36.047Z,6.97
2019-04-10T17:05:08.219Z,6.10
2019-04-10T17:07:37.374Z,9.43
2019-04-10T17:10:14.884Z,7.55
2019-04-10T17:12:56.513Z,6.62
2019-04-10T17:15:26.053Z,6.65
2019-04-10T17:17:54.870Z,7.95
2019-04-10T17:20:24.575Z,6.70
2019-04-10T17:22:54.250Z,9.63
2019-04-10T17:25:24.310Z,6.87
2019-04-10T17:28:12.383Z,7.28
2019-04-10T17:30:42.243Z,6.45
2019-04-10T17:33:11.178Z,8.13
2019-04-10T17:35:40.019Z,7.75
2019-04-10T17:38:08.529Z,6.55
2019-04-10T17:40:45.900Z,6.22
2019-04-10T17:43:08.436Z,6.85
2019-04-10T17:45:38.435Z,6.12
2019-04-10T17:48:07.271Z,8.23
2019-04-10T17:50:35.741Z,5.75
2019-04-10T17:53:07.129Z,6.45
2019-04-10T17:55:36.004Z,6.37
2019-04-10T17:58:05.325Z,6.25
2019-04-10T18:00:35.628Z,4.75
2019-04-10T18:03:05.327Z,4.90
2019-04-10T18:05:53.455Z,5.65
2019-04-10T18:08:24.168Z,5.12
2019-04-10T18:10:54.110Z,6.55
2019-04-10T18:13:22.484Z,7.87
2019-04-10T18:15:50.963Z,5.62
2019-04-10T18:18:19.835Z,5.35
2019-04-10T18:20:49.682Z,6.62
2019-04-10T18:23:19.562Z,6.08
2019-04-10T18:25:48.057Z,6.30
2019-04-10T18:28:17.175Z,6.92
2019-04-10T18:30:46.127Z,6.60
2019-04-10T18:33:14.776Z,5.85
2019-04-10T18:35:43.248Z,5.17
2019-04-10T18:38:11.696Z,7.55
2019-04-10T18:40:46.991Z,7.03
2019-04-10T18:43:10.340Z,7.70
2019-04-10T18:45:40.869Z,6.87
2019-04-10T18:48:10.256Z,6.10
2019-04-10T18:50:38.844Z,6.30
2019-04-10T18:53:08.793Z,7.95
2019-04-10T18:55:38.435Z,8.70
2019-04-10T18:58:09.586Z,6.87
2019-04-10T19:00:46.216Z,6.35
2019-04-10T19:03:45.066Z,6.83
2019-04-10T19:06:04.774Z,7.05
2019-04-10T19:08:33.210Z,6.37
2019-04-10T19:11:16.593Z,9.28
2019-04-10T19:13:32.767Z,7.37
2019-04-10T19:16:01.435Z,9.35
2019-04-10T19:18:29.948Z,8.78
2019-04-10T19:20:59.030Z,9.65
2019-04-10T19:23:29.111Z,8.23
2019-04-10T19:25:58.783Z,11.38
2019-04-10T19:28:31.172Z,7.12
2019-04-10T19:31:08.706Z,9.18
2019-04-10T19:33:29.657Z,9.40
2019-04-10T19:35:58.079Z,7.67
2019-04-10T19:38:45.852Z,8.00
2019-04-10T19:41:25.222Z,10.00
2019-04-10T19:43:44.521Z,10.38
2019-04-10T19:46:12.971Z,8.88
2019-04-10T19:48:41.586Z,8.40
2019-04-10T19:51:10.097Z,10.90
2019-04-10T19:53:39.515Z,9.28
2019-04-10T19:56:09.336Z,9.80
2019-04-10T19:58:38.576Z,8.05
2019-04-10T20:01:08.659Z,13.93
2019-04-10T20:03:37.556Z,10.88
2019-04-10T20:06:06.150Z,11.18
2019-04-10T20:08:35.581Z,9.10
2019-04-10T20:11:04.536Z,9.85
2019-04-10T20:13:52.364Z,10.90
2019-04-10T20:16:20.832Z,11.63
2019-04-10T20:18:49.285Z,11.55
2019-04-10T20:21:17.710Z,11.45
2019-04-10T20:23:46.153Z,10.25
2019-04-10T20:26:14.796Z,10.53
2019-04-10T20:28:43.415Z,11.08
2019-04-10T20:31:13.483Z,12.50
2019-04-10T20:33:42.977Z,12.15
2019-04-10T20:36:11.564Z,10.15
2019-04-10T20:38:40.832Z,12.25
2019-04-10T20:41:10.767Z,12.23
2019-04-10T20:43:39.383Z,10.55
2019-04-10T20:46:07.992Z,10.82
2019-04-10T20:48:36.431Z,10.38
2019-04-10T20:51:06.064Z,11.25
2019-04-10T20:53:35.876Z,11.80
2019-04-10T20:56:04.530Z,13.05
2019-04-10T20:58:33.846Z,14.80
2019-04-10T21:01:03.569Z,10.53
2019-04-10T21:03:32.205Z,14.45
2019-04-10T21:06:00.642Z,12.20
2019-04-10T21:08:29.748Z,12.53
2019-04-10T21:10:59.094Z,13.00
2019-04-10T21:13:27.580Z,10.15
2019-04-10T21:15:56.021Z,13.85
2019-04-10T21:18:24.448Z,11.83
2019-04-10T21:20:53.706Z,12.53
2019-04-10T21:23:22.305Z,12.60
2019-04-10T21:25:51.935Z,10.90
2019-04-10T21:28:20.469Z,12.05
2019-04-10T21:31:07.611Z,12.85
2019-04-10T21:33:40.922Z,14.10
2019-04-10T21:36:09.520Z,12.58
2019-04-10T21:38:38.747Z,14.15
2019-04-10T21:41:09.948Z,11.80
2019-04-10T21:43:38.913Z,13.72
2019-04-10T21:46:08.209Z,12.75
2019-04-10T21:48:37.241Z,12.82
2019-04-10T21:51:06.706Z,12.18
2019-04-10T21:53:36.008Z,12.15
2019-04-10T21:56:06.250Z,11.60
2019-04-10T21:58:34.817Z,15.65
2019-04-10T22:01:05.493Z,13.55
2019-04-10T22:03:34.118Z,14.83
2019-04-10T22:06:17.710Z,12.30
2019-04-10T22:11:49.704Z,11.83
2019-04-10T22:14:19.245Z,13.32
2019-04-10T22:16:48.405Z,13.05
2019-04-10T22:19:17.025Z,15.15
2019-04-10T22:21:46.220Z,13.25
2019-04-10T22:24:15.746Z,12.15
2019-04-10T22:26:44.559Z,13.45
2019-04-10T22:29:14.075Z,14.58
2019-04-10T22:31:43.830Z,14.78
2019-04-10T22:34:12.278Z,14.70
2019-04-10T22:36:41.551Z,14.58
2019-04-10T22:39:12.035Z,14.10
2019-04-10T22:41:40.684Z,13.43
2019-04-10T22:44:09.761Z,14.35
2019-04-10T22:46:38.516Z,17.95
2019-04-10T22:49:06.966Z,13.10
2019-04-10T22:51:35.649Z,12.73
2019-04-10T22:54:06.027Z,14.40
2019-04-10T22:56:35.738Z,14.03
2019-04-10T22:59:04.409Z,15.30
2019-04-10T23:01:33.408Z,14.85
2019-04-10T23:04:02.111Z,16.40
2019-04-10T23:06:31.347Z,14.78
2019-04-10T23:09:00.115Z,15.63
2019-04-10T23:11:38.403Z,14.15
2019-04-10T23:13:58.769Z,14.20
2019-04-10T23:16:28.245Z,16.45
2019-04-10T23:18:58.047Z,15.00
2019-04-10T23:21:26.626Z,15.65
2019-04-10T23:23:55.087Z,14.78
2019-04-10T23:26:24.827Z,15.72
2019-04-10T23:28:53.793Z,14.70
2019-04-10T23:31:22.284Z,17.17
2019-04-10T23:33:50.728Z,15.20
2019-04-10T23:36:20.237Z,14.33
2019-04-10T23:38:49.924Z,14.20
2019-04-10T23:41:18.540Z,13.53
2019-04-10T23:43:48.084Z,15.10
2019-04-10T23:46:17.967Z,15.38
2019-04-10T23:48:46.810Z,14.40
2019-04-10T23:51:15.445Z,17.40
2019-04-10T23:53:44.783Z,16.02
2019-04-10T23:56:13.598Z,16.48
2019-04-10T23:58:42.414Z,15.58
